METAR Data
IDs: Format: Raw Decoded Include TAF

Data at: 0019 UTC 20 Sep 2020

KCNC 200015Z AUTO 14004KT 10SM CLR 15/12 A3021 RMK AO2
KCNC 192355Z AUTO 14005KT 10SM CLR 16/11 A3021 RMK AO2
KCNC 192335Z AUTO 16007KT 10SM CLR 17/10 A3021 RMK AO2
KCNC 192315Z AUTO 17008KT 10SM CLR 18/10 A3021 RMK AO2
KCNC 192255Z AUTO 16007KT 10SM CLR 19/10 A3021 RMK AO2
KCNC 192235Z AUTO 16008KT 10SM CLR 19/10 A3021 RMK AO2
KCNC 192215Z AUTO 18009KT 10SM CLR 20/10 A3022 RMK AO2
KCNC 192155Z AUTO 16009KT 10SM CLR 20/10 A3022 RMK AO2
KCNC 192135Z AUTO 16009KT CLR 20/09 A3022 RMK AO2
KCNC 192115Z AUTO 17010KT 9SM CLR 20/09 A3022 RMK AO2
KCNC 192035Z AUTO 16013KT 10SM CLR 20/09 A3023 RMK AO2
KCNC 192015Z AUTO 14013KT 10SM CLR 20/09 A3024 RMK AO2
KCNC 191955Z AUTO 18010G18KT 10SM CLR 20/09 A3025 RMK AO2
KCNC 191935Z AUTO 17013KT 10SM CLR 20/09 A3025 RMK AO2
KCNC 191915Z AUTO 14009G16KT 10SM CLR 19/09 A3026 RMK AO2
KCNC 191855Z AUTO 16011G17KT 10SM CLR 19/09 A3028 RMK AO2
KCNC 191835Z AUTO 17010KT 10SM CLR 19/10 A3029 RMK AO2
KCNC 191815Z AUTO 15011KT 10SM CLR 18/10 A3029 RMK AO2
KCNC 191755Z AUTO 16010G15KT 10SM CLR 18/10 A3030 RMK AO2
KCNC 191735Z AUTO 16011KT 10SM CLR 17/10 A3031 RMK AO2
KCNC 191715Z AUTO 16013KT 10SM CLR 17/10 A3031 RMK AO2
KCNC 191655Z AUTO 14011KT 10SM CLR 17/10 A3032 RMK AO2
KCNC 191635Z AUTO 19007G15KT 10SM CLR 16/10 A3033 RMK AO2
KCNC 191615Z AUTO 18009KT 10SM CLR 16/10 A3033 RMK AO2
KCNC 191555Z AUTO 15010KT 10SM CLR 15/10 A3032 RMK AO2
KCNC 191535Z AUTO 14011KT 10SM CLR 14/11 A3032 RMK AO2
KCNC 191515Z AUTO 14009KT 10SM CLR 13/11 A3033 RMK AO2
KCNC 191455Z AUTO 14009KT 10SM CLR 12/11 A3033 RMK AO2
KCNC 191435Z AUTO 14007KT 10SM CLR 12/11 A3032 RMK AO2
KCNC 191415Z AUTO 15008KT 10SM CLR 11/11 A3032 RMK AO2
KCNC 191355Z AUTO 15006KT 10SM CLR 10/10 A3032 RMK AO2
KCNC 191335Z AUTO 14007KT 10SM CLR 09/09 A3032 RMK AO2
KCNC 191315Z AUTO 14006KT 10SM CLR 09/09 A3031 RMK AO2
KCNC 191255Z AUTO 14005KT 10SM CLR 09/08 A3031 RMK AO2
KCNC 191235Z AUTO 15005KT 10SM CLR 08/08 A3031 RMK AO2
KCNC 191215Z AUTO 14006KT 10SM CLR 08/08 A3031 RMK AO2
KCNC 191155Z AUTO 15006KT 10SM FEW048 08/08 A3030 RMK AO2
KCNC 191135Z AUTO 15006KT 10SM FEW048 09/08 A3030 RMK AO2
KCNC 191115Z AUTO 15007KT 10SM SCT049 09/09 A3030 RMK AO2
KCNC 191055Z AUTO 14006KT 10SM BKN049 09/09 A3030 RMK AO2
KCNC 191035Z AUTO 14006KT 10SM SCT049 09/09 A3030 RMK AO2
KCNC 191015Z AUTO 15006KT 10SM SCT050 09/09 A3029 RMK AO2
KCNC 190955Z AUTO 14007KT 10SM SCT050 09/09 A3029 RMK AO2
KCNC 190935Z AUTO 14006KT 10SM SCT050 09/09 A3029 RMK AO2
KCNC 190915Z AUTO 14006KT 9SM FEW050 10/09 A3029 RMK AO2
KCNC 190855Z AUTO 14006KT 10SM SCT050 10/10 A3029 RMK AO2
KCNC 190835Z AUTO 14006KT 10SM FEW050 10/09 A3029 RMK AO2
KCNC 190815Z AUTO 15005KT 10SM SCT050 10/10 A3030 RMK AO2
KCNC 190755Z AUTO 13006KT 10SM SCT050 10/10 A3030 RMK AO2
KCNC 190735Z AUTO 14006KT 10SM SCT055 10/10 A3030 RMK AO2
KCNC 190715Z AUTO 14005KT 10SM SCT055 10/10 A3030 RMK AO2
KCNC 190655Z AUTO 16005KT 10SM FEW055 10/10 A3030 RMK AO2
KCNC 190635Z AUTO 15005KT 10SM FEW050 11/10 A3030 RMK AO2
KCNC 190615Z AUTO 16005KT 10SM SCT055 11/11 A3031 RMK AO2
KCNC 190555Z AUTO 15005KT 10SM CLR 11/11 A3031 RMK AO2
KCNC 190535Z AUTO 14005KT 10SM CLR 11/11 A3031 RMK AO2
KCNC 190515Z AUTO 14005KT 10SM FEW055 11/11 A3030 RMK AO2
KCNC 190455Z AUTO 14006KT 10SM FEW050 12/11 A3031 RMK AO2
KCNC 190435Z AUTO 15005KT 10SM CLR 12/11 A3031 RMK AO2
KCNC 190415Z AUTO 14006KT 10SM CLR 12/12 A3031 RMK AO2
KCNC 190355Z AUTO 13005KT 10SM FEW060 12/12 A3030 RMK AO2
KCNC 190335Z AUTO 13005KT 10SM FEW060 12/12 A3030 RMK AO2
KCNC 190315Z AUTO 13005KT 10SM FEW060 12/12 A3030 RMK AO2
KCNC 190255Z AUTO 12005KT 10SM CLR 13/13 A3030 RMK AO2
KCNC 190235Z AUTO 11004KT 10SM FEW060 13/13 A3029 RMK AO2
KCNC 190215Z AUTO 11004KT 10SM CLR 14/13 A3029 RMK AO2
KCNC 190155Z AUTO 11003KT 10SM CLR 14/12 A3029 RMK AO2
KCNC 190135Z AUTO 10003KT 10SM CLR 14/12 A3028 RMK AO2
KCNC 190115Z AUTO 09003KT 10SM CLR 14/12 A3027 RMK AO2
KCNC 190055Z AUTO 08004KT 10SM CLR 15/11 A3027 RMK AO2
KCNC 190035Z AUTO 07005KT 10SM CLR 15/11 A3027 RMK AO2
KCNC 190015Z AUTO 07006KT 10SM CLR 16/11 A3026 RMK AO2
KCNC 182355Z AUTO 07004KT 10SM CLR 17/11 A3026 RMK AO2
KCNC 182335Z AUTO 08004KT 10SM CLR 18/11 A3026 RMK AO2
KCNC 182315Z AUTO 13004KT CLR 19/10 A3026 RMK AO2
KCNC 182255Z AUTO 11004KT 10SM CLR 20/10 A3026 RMK AO2
KCNC 182235Z AUTO 12005KT 10SM CLR 20/09 A3026 RMK AO2
KCNC 182215Z AUTO 11004KT 10SM CLR 20/09 A3026 RMK AO2
KCNC 182155Z AUTO 10005KT 10SM CLR 20/08 A3027 RMK AO2
KCNC 182135Z AUTO 07004KT 10SM CLR 20/09 A3027 RMK AO2
KCNC 182115Z AUTO 08005KT 10SM CLR 20/09 A3028 RMK AO2
KCNC 182055Z AUTO 06004KT 10SM CLR 20/09 A3028 RMK AO2
KCNC 182035Z AUTO 00000KT 10SM CLR 20/09 A3029 RMK AO2
KCNC 182015Z AUTO VRB05KT 10SM CLR 20/09 A3029 RMK AO2
KCNC 181955Z AUTO 07006KT 10SM CLR 19/09 A3030 RMK AO2
KCNC 181935Z AUTO 07007KT 10SM CLR 19/09 A3031 RMK AO2
KCNC 181915Z AUTO VRB04KT 10SM CLR 19/08 A3032 RMK AO2
KCNC 181855Z AUTO 00000KT 10SM CLR 19/08 A3032 RMK AO2
KCNC 181835Z AUTO VRB04KT 10SM CLR 19/09 A3033 RMK AO2
KCNC 181815Z AUTO 12005KT 10SM CLR 18/09 A3034 RMK AO2
KCNC 181755Z AUTO 06007KT 10SM CLR 18/09 A3035 RMK AO2
KCNC 181735Z AUTO 08008KT 10SM CLR 18/09 A3035 RMK AO2
KCNC 181715Z AUTO 04007KT 10SM CLR 17/09 A3035 RMK AO2
KCNC 181655Z AUTO 00000KT 10SM CLR 17/09 A3036 RMK AO2
KCNC 181635Z AUTO VRB05KT 10SM CLR 16/10 A3037 RMK AO2
KCNC 181615Z AUTO VRB03KT 10SM CLR 15/10 A3036 RMK AO2
KCNC 181555Z AUTO VRB04KT 10SM CLR 15/09 A3037 RMK AO2
KCNC 181535Z AUTO 07005KT 10SM CLR 14/09 A3037 RMK AO2
KCNC 181515Z AUTO 05005KT 10SM CLR 13/09 A3037 RMK AO2
KCNC 181455Z AUTO 03006KT 10SM CLR 12/09 A3037 RMK AO2
KCNC 181435Z AUTO 05007KT 10SM CLR 11/09 A3036 RMK AO2
KCNC 181415Z AUTO 02006KT 10SM CLR 11/09 A3035 RMK AO2
KCNC 181355Z AUTO 02004KT 10SM CLR 10/09 A3035 RMK AO2
KCNC 181335Z AUTO 02005KT 10SM CLR 10/10 A3034 RMK AO2
KCNC 181315Z AUTO 01005KT 10SM CLR 09/09 A3033 RMK AO2
KCNC 181255Z AUTO 01006KT 10SM SCT085 08/08 A3033 RMK AO2
KCNC 181235Z AUTO 01004KT 10SM BKN085 08/08 A3032 RMK AO2